createdAt,value
2022-09-12T00:01:39.265Z,161.77
2022-09-12T00:08:41.049Z,159.55
2022-09-12T00:15:43.471Z,157.65
2022-09-12T00:22:45.056Z,161.35
2022-09-12T00:29:46.624Z,160.80
2022-09-12T00:36:48.186Z,165.07
2022-09-12T00:43:54.438Z,179.65
2022-09-12T00:50:55.981Z,182.25
2022-09-12T00:58:00.064Z,205.93
2022-09-12T01:05:01.620Z,157.63
2022-09-12T01:12:03.720Z,161.98
2022-09-12T01:19:08.182Z,198.98
2022-09-12T01:26:43.108Z,174.57
2022-09-12T01:33:50.668Z,152.55
2022-09-12T01:41:05.576Z,148.00
2022-09-12T01:48:20.265Z,148.90
2022-09-12T01:55:34.934Z,149.25
2022-09-12T02:03:10.299Z,172.82
2022-09-12T02:10:17.340Z,177.60
2022-09-12T02:17:21.115Z,171.98
2022-09-12T02:24:24.475Z,171.30
2022-09-12T02:31:31.342Z,180.15
2022-09-12T02:38:38.061Z,187.68
2022-09-12T02:45:39.731Z,201.10
2022-09-12T02:52:41.448Z,173.48
2022-09-12T02:59:42.993Z,176.68
2022-09-12T03:06:55.430Z,182.63
2022-09-12T03:14:16.821Z,178.43
2022-09-12T03:21:53.674Z,185.45
2022-09-12T03:28:55.223Z,193.98
2022-09-12T03:35:56.775Z,201.30
2022-09-12T03:42:58.410Z,186.18
2022-09-12T03:50:00.022Z,174.45
2022-09-12T03:57:01.590Z,185.20
2022-09-12T04:04:03.227Z,187.43
2022-09-12T04:11:05.778Z,180.18
2022-09-12T04:18:07.340Z,219.90
2022-09-12T04:25:09.538Z,223.23
2022-09-12T04:32:11.123Z,184.60
2022-09-12T04:39:12.753Z,191.57
2022-09-12T04:46:16.641Z,192.15
2022-09-12T04:53:18.183Z,203.50
2022-09-12T05:00:20.513Z,227.45
2022-09-12T05:07:22.065Z,148.02
2022-09-12T05:14:23.715Z,152.02
2022-09-12T05:21:25.415Z,137.45
2022-09-12T05:28:31.742Z,137.27
2022-09-12T05:35:33.964Z,152.95
2022-09-12T05:42:36.774Z,143.75
2022-09-12T05:49:38.438Z,153.50
2022-09-12T05:56:41.546Z,145.48
2022-09-12T06:03:44.644Z,161.90
2022-09-12T06:10:46.214Z,156.93
2022-09-12T06:17:51.378Z,144.95
2022-09-12T06:24:57.770Z,131.52
2022-09-12T06:31:59.573Z,129.68
2022-09-12T06:39:05.423Z,140.88
2022-09-12T06:46:07.526Z,145.07
2022-09-12T06:53:09.676Z,144.00
2022-09-12T07:00:11.931Z,148.57
2022-09-12T07:07:14.613Z,139.32
2022-09-12T07:14:19.081Z,140.90
2022-09-12T07:21:20.705Z,140.75
2022-09-12T07:28:22.358Z,134.30
2022-09-12T07:35:23.954Z,152.20
2022-09-12T07:42:25.578Z,198.35
2022-09-12T07:49:27.163Z,201.52
2022-09-12T07:56:32.733Z,194.55
2022-09-12T08:03:36.680Z,187.05
2022-09-12T08:10:38.260Z,183.00
2022-09-12T08:17:41.211Z,182.43
2022-09-12T08:24:43.737Z,191.30
2022-09-12T08:31:46.314Z,225.82
2022-09-12T08:38:49.304Z,270.65
2022-09-12T08:45:54.597Z,227.32
2022-09-12T08:53:06.337Z,217.05
2022-09-12T09:00:13.099Z,220.32
2022-09-12T09:07:52.285Z,210.15
2022-09-12T09:15:02.776Z,198.73
2022-09-12T09:22:11.990Z,198.85
2022-09-12T09:29:14.996Z,195.93
2022-09-12T09:36:22.451Z,184.93
2022-09-12T09:43:25.390Z,174.73
2022-09-12T09:50:27.326Z,170.23
2022-09-12T09:57:34.757Z,173.18
2022-09-12T10:04:41.385Z,177.13
2022-09-12T10:11:45.902Z,171.10
2022-09-12T10:18:47.932Z,157.57
2022-09-12T10:25:53.802Z,135.05
2022-09-12T10:33:06.074Z,101.65
2022-09-12T10:40:20.309Z,97.47
2022-09-12T10:47:23.943Z,94.30
2022-09-12T10:54:26.766Z,87.63
2022-09-12T11:02:05.460Z,92.75
2022-09-12T11:09:21.045Z,97.45
2022-09-12T11:16:31.727Z,91.97
2022-09-12T11:24:10.895Z,90.03
2022-09-12T11:31:35.512Z,74.80
2022-09-12T11:38:48.121Z,79.70
2022-09-12T11:45:49.776Z,76.75
2022-09-12T11:52:51.397Z,71.00
2022-09-12T12:00:12.366Z,65.20
2022-09-12T12:07:15.304Z,66.95
2022-09-12T12:14:42.428Z,64.15
2022-09-12T12:21:45.279Z,53.33
2022-09-12T12:28:50.604Z,39.75
2022-09-12T12:36:03.273Z,30.25
2022-09-12T12:43:05.309Z,43.35
2022-09-12T12:50:26.068Z,25.23
2022-09-12T12:57:31.954Z,26.67
2022-09-12T13:04:33.920Z,29.98
2022-09-12T13:11:37.137Z,34.80
2022-09-12T13:18:47.083Z,37.58
2022-09-12T13:25:53.116Z,36.45
2022-09-12T13:32:57.501Z,83.80
2022-09-12T13:40:24.107Z,57.72
2022-09-12T13:47:28.531Z,66.28
2022-09-12T13:54:30.172Z,74.80
2022-09-12T14:01:39.718Z,80.35
2022-09-12T14:08:41.515Z,97.03
2022-09-12T14:15:48.151Z,90.25
2022-09-12T14:22:52.881Z,93.43
2022-09-12T14:30:25.104Z,98.00
2022-09-12T14:37:26.725Z,106.88
2022-09-12T14:44:28.422Z,106.10
2022-09-12T14:51:40.814Z,116.57
2022-09-12T14:58:42.475Z,113.32
2022-09-12T15:05:49.856Z,106.93
2022-09-12T15:13:10.662Z,106.95
2022-09-12T15:20:12.653Z,111.82
2022-09-12T15:27:14.230Z,111.50
2022-09-12T15:34:15.782Z,115.57
2022-09-12T15:41:21.178Z,114.10
2022-09-12T15:48:22.715Z,114.25
2022-09-12T15:55:29.379Z,115.35
2022-09-12T16:02:31.014Z,114.55
2022-09-12T16:09:32.697Z,116.80
2022-09-12T16:16:34.866Z,112.82
2022-09-12T16:23:36.620Z,117.38
2022-09-12T16:30:38.231Z,116.38
2022-09-12T16:37:39.847Z,118.93
2022-09-12T16:44:41.736Z,122.00
2022-09-12T16:51:47.344Z,125.28
2022-09-12T16:58:49.084Z,127.93
2022-09-12T17:06:02.466Z,132.65
2022-09-12T17:13:04.283Z,143.25
2022-09-12T17:20:06.052Z,165.10
2022-09-12T17:27:07.823Z,165.43
2022-09-12T17:34:09.463Z,163.15
2022-09-12T17:41:18.488Z,166.43
2022-09-12T17:48:20.394Z,165.63
2022-09-12T17:55:21.933Z,168.77
2022-09-12T18:02:23.630Z,169.05
2022-09-12T18:09:25.366Z,163.75
2022-09-12T18:16:28.135Z,163.10
2022-09-12T18:23:29.728Z,164.93
2022-09-12T18:30:31.285Z,170.95
2022-09-12T18:37:33.087Z,165.15
2022-09-12T18:44:34.724Z,169.80
2022-09-12T18:51:36.542Z,169.07
2022-09-12T18:58:38.976Z,181.50
2022-09-12T19:05:40.546Z,166.73
2022-09-12T19:12:42.103Z,164.40
2022-09-12T19:19:43.812Z,162.20
2022-09-12T19:26:45.379Z,170.60
2022-09-12T19:33:47.148Z,163.90
2022-09-12T19:40:58.788Z,158.30
2022-09-12T19:48:00.310Z,164.48
2022-09-12T19:55:01.866Z,160.80
2022-09-12T20:02:03.892Z,161.77
2022-09-12T20:09:05.650Z,166.10
2022-09-12T20:16:10.991Z,172.80
2022-09-12T20:23:12.538Z,176.07
2022-09-12T20:30:14.727Z,169.00
2022-09-12T20:37:16.431Z,161.52
2022-09-12T20:44:17.998Z,172.40
2022-09-12T20:51:20.248Z,172.07
2022-09-12T20:58:22.200Z,171.68
2022-09-12T21:05:23.776Z,167.40
2022-09-12T21:12:27.547Z,172.60
2022-09-12T21:19:29.120Z,171.80
2022-09-12T21:26:30.841Z,173.07
2022-09-12T21:33:32.387Z,174.60
2022-09-12T21:40:33.966Z,177.68
2022-09-12T21:47:35.747Z,179.95
2022-09-12T21:54:37.304Z,176.57
2022-09-12T22:01:38.914Z,178.02
2022-09-12T22:08:40.626Z,185.40
2022-09-12T22:15:50.246Z,186.98
2022-09-12T22:23:10.423Z,195.40
2022-09-12T22:30:12.322Z,190.52
2022-09-12T22:37:14.053Z,181.75
2022-09-12T22:44:17.653Z,185.77
2022-09-12T22:51:19.239Z,189.65
2022-09-12T22:58:21.076Z,196.55
2022-09-12T23:05:22.691Z,198.57
2022-09-12T23:12:24.292Z,213.65
2022-09-12T23:19:25.907Z,232.15
2022-09-12T23:26:30.315Z,237.98
2022-09-12T23:33:31.997Z,214.73
2022-09-12T23:40:33.681Z,222.75
2022-09-12T23:47:35.225Z,219.43
2022-09-12T23:54:36.948Z,188.00
